createdAt,value
2022-09-03T00:09:55.116Z,100628.94
2022-09-03T00:20:08.738Z,100632.22
2022-09-03T00:30:16.968Z,100621.56
2022-09-03T00:40:32.690Z,100627.13
2022-09-03T00:51:00.423Z,100628.91
2022-09-03T01:01:17.006Z,100636.34
2022-09-03T01:11:26.392Z,100640.56
2022-09-03T01:21:28.599Z,100647.97
2022-09-03T01:42:20.882Z,100653.75
2022-09-03T01:52:37.845Z,100662.44
2022-09-03T02:02:41.457Z,100657.75
2022-09-03T02:12:52.233Z,100658.03
2022-09-03T02:22:54.961Z,100658.09
2022-09-03T02:32:57.607Z,100674.81
2022-09-03T02:43:02.745Z,100669.00
2022-09-03T02:53:07.334Z,100660.75
2022-09-03T03:03:09.655Z,100669.97
2022-09-03T03:13:12.660Z,100684.66
2022-09-03T03:23:15.025Z,100680.97
2022-09-03T03:33:17.453Z,100683.97
2022-09-03T03:43:19.863Z,100677.97
2022-09-03T03:53:22.192Z,100682.97
2022-09-03T04:03:26.943Z,100694.16
2022-09-03T04:13:39.992Z,100688.31
2022-09-03T04:23:44.970Z,100692.63
2022-09-03T04:33:47.732Z,100700.28
2022-09-03T04:43:52.890Z,100712.03
2022-09-03T04:53:57.729Z,100722.91
2022-09-03T05:04:01.296Z,100710.97
2022-09-03T05:14:05.998Z,100716.19
2022-09-03T05:24:08.317Z,100726.28
2022-09-03T05:34:16.615Z,100743.78
2022-09-03T05:44:24.049Z,100759.34
2022-09-03T05:54:29.435Z,100745.19
2022-09-03T06:04:33.127Z,100756.50
2022-09-03T06:14:36.272Z,100752.50
2022-09-03T06:24:39.140Z,100747.81
2022-09-03T06:34:42.228Z,100744.16
2022-09-03T06:44:47.533Z,100747.34
2022-09-03T06:54:50.324Z,100746.16
2022-09-03T07:04:53.423Z,100758.78
2022-09-03T07:14:56.940Z,100748.84
2022-09-03T07:24:59.431Z,100765.19
2022-09-03T07:35:02.734Z,100770.09
2022-09-03T07:45:10.878Z,100767.53
2022-09-03T07:55:14.815Z,100780.72
2022-09-03T08:05:20.587Z,100770.13
2022-09-03T08:15:24.161Z,100790.34
2022-09-03T08:25:28.298Z,100777.03
2022-09-03T08:35:34.599Z,100777.78
2022-09-03T08:45:38.385Z,100770.63
2022-09-03T08:55:52.125Z,100774.56
2022-09-03T09:06:32.904Z,100765.88
2022-09-03T09:17:13.731Z,100764.47
2022-09-03T09:27:17.590Z,100756.00
2022-09-03T09:37:35.813Z,100774.84
2022-09-03T09:47:42.762Z,100770.66
2022-09-03T09:58:34.044Z,100779.34
2022-09-03T10:08:44.732Z,100769.72
2022-09-03T10:19:18.451Z,100759.00
2022-09-03T10:29:23.191Z,100763.31
2022-09-03T10:39:32.116Z,100760.28
2022-09-03T10:50:16.372Z,100765.03
2022-09-03T11:00:19.909Z,100762.38
2022-09-03T11:10:32.624Z,100770.78
2022-09-03T11:20:35.928Z,100764.94
2022-09-03T11:31:15.929Z,100770.91
2022-09-03T11:41:27.469Z,100770.25
2022-09-03T11:51:37.843Z,100769.94
2022-09-03T12:01:55.224Z,100773.19
2022-09-03T12:12:09.551Z,100767.00
2022-09-03T12:22:20.610Z,100759.16
2022-09-03T12:32:24.598Z,100760.50
2022-09-03T12:42:37.099Z,100750.91
2022-09-03T12:52:42.165Z,100752.50
2022-09-03T13:02:59.252Z,100755.28
2022-09-03T13:13:15.907Z,100739.09
2022-09-03T13:23:40.744Z,100754.09
2022-09-03T13:33:47.659Z,100741.50
2022-09-03T13:44:07.985Z,100741.03
2022-09-03T13:54:47.770Z,100738.91
2022-09-03T14:05:02.022Z,100736.44
2022-09-03T14:15:04.412Z,100748.13
2022-09-03T14:25:17.175Z,100735.03
2022-09-03T14:35:25.518Z,100738.19
2022-09-03T14:45:42.481Z,100734.34
2022-09-03T14:56:11.027Z,100730.97
2022-09-03T15:06:31.498Z,100742.84
2022-09-03T15:16:52.089Z,100733.47
2022-09-03T15:27:20.494Z,100741.34
2022-09-03T15:37:30.517Z,100740.03
2022-09-03T15:47:54.608Z,100742.91
2022-09-03T15:58:10.768Z,100760.00
2022-09-03T16:08:40.620Z,100759.09
2022-09-03T16:19:25.177Z,100755.84
2022-09-03T16:29:31.284Z,100771.31
2022-09-03T16:40:02.966Z,100772.94
2022-09-03T16:50:21.462Z,100778.03
2022-09-03T17:00:35.685Z,100788.69
2022-09-03T17:10:51.679Z,100789.63
2022-09-03T17:21:32.409Z,100798.59
2022-09-03T17:31:51.351Z,100803.22
2022-09-03T17:42:33.036Z,100818.50
2022-09-03T17:52:55.665Z,100814.69
2022-09-03T18:03:11.887Z,100832.28
2022-09-03T18:13:24.025Z,100836.72
2022-09-03T18:23:47.539Z,100853.38
2022-09-03T18:34:08.479Z,100854.25
2022-09-03T18:44:38.833Z,100868.63
2022-09-03T18:55:18.665Z,100899.31
2022-09-03T19:06:13.169Z,100891.28
2022-09-03T19:16:56.679Z,100900.06
2022-09-03T19:27:54.214Z,100910.03
2022-09-03T19:38:22.964Z,100909.53
2022-09-03T19:49:21.993Z,100916.34
2022-09-03T19:59:48.372Z,100920.09
2022-09-03T20:10:17.043Z,100903.53
2022-09-03T20:20:40.433Z,100926.28
2022-09-03T20:30:55.890Z,100935.84
2022-09-03T20:41:29.540Z,100936.94
2022-09-03T20:51:42.167Z,100955.22
2022-09-03T21:01:54.050Z,100955.16
2022-09-03T21:12:19.885Z,100954.78
2022-09-03T21:22:53.681Z,100959.66
2022-09-03T21:33:04.107Z,100963.13
2022-09-03T21:43:14.918Z,100966.53
2022-09-03T21:53:26.196Z,100971.22
2022-09-03T22:03:28.501Z,100974.59
2022-09-03T22:13:47.907Z,100990.44
2022-09-03T22:24:19.126Z,100987.59
2022-09-03T22:34:41.308Z,100998.44
2022-09-03T22:44:49.889Z,100997.91
2022-09-03T22:55:18.783Z,100994.28
2022-09-03T23:05:48.469Z,100992.47
2022-09-03T23:16:10.256Z,100990.22
2022-09-03T23:26:33.608Z,100989.66
2022-09-03T23:37:22.507Z,100984.88
2022-09-03T23:47:23.871Z,100991.59
2022-09-03T23:57:39.090Z,101001.72
